sensor_id;sensor_type;location;lat;lon;timestamp;P1;durP1;ratioP1;P2;durP2;ratioP2
20124;SDS011;10223;50.862;4.360;2023-02-19T00:01:08;13.57;;;6.73;;
20124;SDS011;10223;50.862;4.360;2023-02-19T00:03:37;12.97;;;7.17;;
20124;SDS011;10223;50.862;4.360;2023-02-19T00:06:04;12.47;;;6.30;;
20124;SDS011;10223;50.862;4.360;2023-02-19T00:08:33;14.63;;;7.17;;
20124;SDS011;10223;50.862;4.360;2023-02-19T00:11:02;12.90;;;6.93;;
20124;SDS011;10223;50.862;4.360;2023-02-19T00:13:34;14.50;;;7.57;;
20124;SDS011;10223;50.862;4.360;2023-02-19T00:16:08;14.93;;;7.83;;
20124;SDS011;10223;50.862;4.360;2023-02-19T00:18:40;14.33;;;6.80;;
20124;SDS011;10223;50.862;4.360;2023-02-19T00:21:08;16.27;;;7.53;;
20124;SDS011;10223;50.862;4.360;2023-02-19T00:23:35;12.23;;;6.93;;
20124;SDS011;10223;50.862;4.360;2023-02-19T00:26:02;11.10;;;6.13;;
20124;SDS011;10223;50.862;4.360;2023-02-19T00:28:30;14.97;;;7.30;;
20124;SDS011;10223;50.862;4.360;2023-02-19T00:31:02;11.63;;;7.27;;
20124;SDS011;10223;50.862;4.360;2023-02-19T00:33:32;12.03;;;6.67;;
20124;SDS011;10223;50.862;4.360;2023-02-19T00:35:59;11.70;;;6.90;;
20124;SDS011;10223;50.862;4.360;2023-02-19T00:38:27;10.60;;;6.40;;
20124;SDS011;10223;50.862;4.360;2023-02-19T00:40:54;9.80;;;6.03;;
20124;SDS011;10223;50.862;4.360;2023-02-19T00:43:20;15.23;;;6.37;;
20124;SDS011;10223;50.862;4.360;2023-02-19T00:45:47;18.27;;;6.50;;
20124;SDS011;10223;50.862;4.360;2023-02-19T00:48:14;14.37;;;6.50;;
20124;SDS011;10223;50.862;4.360;2023-02-19T00:50:43;11.53;;;6.27;;
20124;SDS011;10223;50.862;4.360;2023-02-19T00:53:10;12.70;;;6.87;;
20124;SDS011;10223;50.862;4.360;2023-02-19T00:55:37;12.13;;;6.13;;
20124;SDS011;10223;50.862;4.360;2023-02-19T00:58:03;11.53;;;6.10;;
20124;SDS011;10223;50.862;4.360;2023-02-19T01:00:30;14.77;;;6.23;;
20124;SDS011;10223;50.862;4.360;2023-02-19T01:02:57;12.57;;;5.93;;
20124;SDS011;10223;50.862;4.360;2023-02-19T01:05:24;12.73;;;5.50;;
20124;SDS011;10223;50.862;4.360;2023-02-19T01:07:53;10.87;;;5.67;;
20124;SDS011;10223;50.862;4.360;2023-02-19T01:10:19;12.30;;;5.67;;
20124;SDS011;10223;50.862;4.360;2023-02-19T01:12:46;9.87;;;5.93;;
20124;SDS011;10223;50.862;4.360;2023-02-19T01:15:13;11.73;;;5.60;;
20124;SDS011;10223;50.862;4.360;2023-02-19T01:17:40;14.80;;;5.47;;
20124;SDS011;10223;50.862;4.360;2023-02-19T01:20:07;11.30;;;5.23;;
20124;SDS011;10223;50.862;4.360;2023-02-19T01:22:34;13.97;;;5.53;;
20124;SDS011;10223;50.862;4.360;2023-02-19T01:25:03;16.67;;;5.20;;
20124;SDS011;10223;50.862;4.360;2023-02-19T01:27:30;11.30;;;5.77;;
20124;SDS011;10223;50.862;4.360;2023-02-19T01:29:57;9.23;;;5.40;;
20124;SDS011;10223;50.862;4.360;2023-02-19T01:32:24;9.83;;;4.97;;
20124;SDS011;10223;50.862;4.360;2023-02-19T01:34:51;8.37;;;4.33;;
20124;SDS011;10223;50.862;4.360;2023-02-19T01:37:18;11.80;;;5.57;;
20124;SDS011;10223;50.862;4.360;2023-02-19T01:39:46;13.73;;;5.23;;
20124;SDS011;10223;50.862;4.360;2023-02-19T01:42:14;13.17;;;4.67;;
20124;SDS011;10223;50.862;4.360;2023-02-19T01:47:49;13.30;;;4.30;;
20124;SDS011;10223;50.862;4.360;2023-02-19T01:50:22;12.17;;;3.77;;
20124;SDS011;10223;50.862;4.360;2023-02-19T01:52:49;11.57;;;4.07;;
20124;SDS011;10223;50.862;4.360;2023-02-19T01:55:16;13.63;;;3.90;;
20124;SDS011;10223;50.862;4.360;2023-02-19T01:57:46;12.40;;;3.53;;
20124;SDS011;10223;50.862;4.360;2023-02-19T02:00:16;9.90;;;3.73;;
20124;SDS011;10223;50.862;4.360;2023-02-19T02:02:44;5.87;;;2.97;;
20124;SDS011;10223;50.862;4.360;2023-02-19T02:05:18;11.03;;;3.27;;
20124;SDS011;10223;50.862;4.360;2023-02-19T02:07:50;9.43;;;3.03;;
20124;SDS011;10223;50.862;4.360;2023-02-19T02:10:35;14.97;;;3.60;;
20124;SDS011;10223;50.862;4.360;2023-02-19T02:13:03;12.13;;;3.00;;
20124;SDS011;10223;50.862;4.360;2023-02-19T02:15:34;16.70;;;3.70;;
20124;SDS011;10223;50.862;4.360;2023-02-19T02:18:12;15.43;;;3.50;;
20124;SDS011;10223;50.862;4.360;2023-02-19T02:21:02;9.80;;;3.47;;
20124;SDS011;10223;50.862;4.360;2023-02-19T02:23:45;11.80;;;3.27;;
20124;SDS011;10223;50.862;4.360;2023-02-19T02:26:29;11.03;;;2.93;;
20124;SDS011;10223;50.862;4.360;2023-02-19T02:29:31;14.87;;;3.60;;
20124;SDS011;10223;50.862;4.360;2023-02-19T02:32:25;13.07;;;3.17;;
20124;SDS011;10223;50.862;4.360;2023-02-19T02:34:55;12.50;;;2.90;;
20124;SDS011;10223;50.862;4.360;2023-02-19T02:37:25;12.27;;;3.20;;
20124;SDS011;10223;50.862;4.360;2023-02-19T02:39:58;12.33;;;3.03;;
20124;SDS011;10223;50.862;4.360;2023-02-19T02:42:27;13.50;;;3.13;;
20124;SDS011;10223;50.862;4.360;2023-02-19T02:44:55;9.27;;;2.53;;
20124;SDS011;10223;50.862;4.360;2023-02-19T02:47:41;11.90;;;3.77;;
20124;SDS011;10223;50.862;4.360;2023-02-19T02:50:11;17.40;;;3.70;;
20124;SDS011;10223;50.862;4.360;2023-02-19T02:52:41;9.17;;;2.70;;
20124;SDS011;10223;50.862;4.360;2023-02-19T02:55:28;11.23;;;2.90;;
20124;SDS011;10223;50.862;4.360;2023-02-19T02:57:58;13.53;;;2.60;;
20124;SDS011;10223;50.862;4.360;2023-02-19T03:00:27;11.33;;;2.70;;
20124;SDS011;10223;50.862;4.360;2023-02-19T03:03:21;10.70;;;3.10;;
20124;SDS011;10223;50.862;4.360;2023-02-19T03:05:50;7.40;;;2.27;;
20124;SDS011;10223;50.862;4.360;2023-02-19T03:08:22;11.87;;;2.33;;
20124;SDS011;10223;50.862;4.360;2023-02-19T03:10:53;13.63;;;2.70;;
20124;SDS011;10223;50.862;4.360;2023-02-19T03:13:44;10.67;;;2.27;;
20124;SDS011;10223;50.862;4.360;2023-02-19T03:16:33;10.00;;;2.63;;
20124;SDS011;10223;50.862;4.360;2023-02-19T03:19:20;14.80;;;2.60;;
20124;SDS011;10223;50.862;4.360;2023-02-19T03:21:53;14.57;;;2.97;;
20124;SDS011;10223;50.862;4.360;2023-02-19T03:24:24;8.70;;;2.07;;
20124;SDS011;10223;50.862;4.360;2023-02-19T03:27:11;12.73;;;2.83;;
20124;SDS011;10223;50.862;4.360;2023-02-19T03:29:39;7.93;;;2.00;;
20124;SDS011;10223;50.862;4.360;2023-02-19T03:32:10;11.20;;;2.03;;
20124;SDS011;10223;50.862;4.360;2023-02-19T03:34:40;11.37;;;2.43;;
20124;SDS011;10223;50.862;4.360;2023-02-19T03:37:12;11.13;;;2.50;;
20124;SDS011;10223;50.862;4.360;2023-02-19T03:39:41;8.10;;;2.13;;
20124;SDS011;10223;50.862;4.360;2023-02-19T03:42:14;12.93;;;2.37;;
20124;SDS011;10223;50.862;4.360;2023-02-19T03:44:52;10.37;;;2.10;;
20124;SDS011;10223;50.862;4.360;2023-02-19T03:47:29;9.30;;;2.20;;
20124;SDS011;10223;50.862;4.360;2023-02-19T03:50:02;19.23;;;2.27;;
20124;SDS011;10223;50.862;4.360;2023-02-19T03:52:38;6.70;;;2.07;;
20124;SDS011;10223;50.862;4.360;2023-02-19T03:55:13;4.97;;;1.90;;
20124;SDS011;10223;50.862;4.360;2023-02-19T03:57:44;9.53;;;1.90;;
20124;SDS011;10223;50.862;4.360;2023-02-19T04:00:16;11.80;;;2.50;;
20124;SDS011;10223;50.862;4.360;2023-02-19T04:02:48;13.13;;;1.73;;
20124;SDS011;10223;50.862;4.360;2023-02-19T04:05:20;12.87;;;2.80;;
20124;SDS011;10223;50.862;4.360;2023-02-19T04:07:49;11.20;;;2.20;;
20124;SDS011;10223;50.862;4.360;2023-02-19T04:10:19;16.70;;;2.77;;
20124;SDS011;10223;50.862;4.360;2023-02-19T04:12:48;14.90;;;3.23;;
20124;SDS011;10223;50.862;4.360;2023-02-19T04:15:18;10.53;;;2.30;;
20124;SDS011;10223;50.862;4.360;2023-02-19T04:17:51;14.20;;;2.37;;
20124;SDS011;10223;50.862;4.360;2023-02-19T04:20:22;12.60;;;2.33;;
20124;SDS011;10223;50.862;4.360;2023-02-19T04:22:52;14.47;;;1.73;;
20124;SDS011;10223;50.862;4.360;2023-02-19T04:25:19;13.97;;;2.77;;
20124;SDS011;10223;50.862;4.360;2023-02-19T04:27:48;16.33;;;2.90;;
20124;SDS011;10223;50.862;4.360;2023-02-19T04:30:16;16.20;;;2.73;;
20124;SDS011;10223;50.862;4.360;2023-02-19T04:32:43;13.43;;;2.40;;
20124;SDS011;10223;50.862;4.360;2023-02-19T04:35:11;13.90;;;2.70;;
20124;SDS011;10223;50.862;4.360;2023-02-19T04:37:38;11.33;;;2.47;;
20124;SDS011;10223;50.862;4.360;2023-02-19T04:40:05;11.27;;;2.17;;
20124;SDS011;10223;50.862;4.360;2023-02-19T04:42:32;13.50;;;2.80;;
20124;SDS011;10223;50.862;4.360;2023-02-19T04:45:00;9.07;;;2.57;;
20124;SDS011;10223;50.862;4.360;2023-02-19T04:47:26;15.07;;;2.50;;
20124;SDS011;10223;50.862;4.360;2023-02-19T04:49:53;15.60;;;2.60;;
20124;SDS011;10223;50.862;4.360;2023-02-19T04:52:21;14.27;;;2.30;;
20124;SDS011;10223;50.862;4.360;2023-02-19T04:54:48;13.83;;;2.53;;
20124;SDS011;10223;50.862;4.360;2023-02-19T04:57:15;9.30;;;2.63;;
20124;SDS011;10223;50.862;4.360;2023-02-19T04:59:42;17.87;;;2.70;;
20124;SDS011;10223;50.862;4.360;2023-02-19T05:02:09;15.03;;;2.67;;
20124;SDS011;10223;50.862;4.360;2023-02-19T05:04:36;11.33;;;2.80;;
20124;SDS011;10223;50.862;4.360;2023-02-19T05:07:03;17.63;;;2.80;;
20124;SDS011;10223;50.862;4.360;2023-02-19T05:09:31;17.23;;;2.77;;
20124;SDS011;10223;50.862;4.360;2023-02-19T05:11:58;11.70;;;2.47;;
20124;SDS011;10223;50.862;4.360;2023-02-19T05:14:25;18.80;;;2.50;;
20124;SDS011;10223;50.862;4.360;2023-02-19T05:16:52;15.30;;;2.63;;
20124;SDS011;10223;50.862;4.360;2023-02-19T05:19:19;7.73;;;2.57;;
20124;SDS011;10223;50.862;4.360;2023-02-19T05:21:46;15.63;;;2.53;;
20124;SDS011;10223;50.862;4.360;2023-02-19T05:24:13;12.47;;;2.70;;
20124;SDS011;10223;50.862;4.360;2023-02-19T05:26:41;12.63;;;2.57;;
20124;SDS011;10223;50.862;4.360;2023-02-19T05:29:08;12.83;;;2.37;;
20124;SDS011;10223;50.862;4.360;2023-02-19T05:31:35;14.57;;;3.07;;
20124;SDS011;10223;50.862;4.360;2023-02-19T05:34:01;13.27;;;2.67;;
20124;SDS011;10223;50.862;4.360;2023-02-19T05:36:28;15.30;;;2.37;;
20124;SDS011;10223;50.862;4.360;2023-02-19T05:38:56;17.37;;;2.40;;
20124;SDS011;10223;50.862;4.360;2023-02-19T05:41:25;14.60;;;2.57;;
20124;SDS011;10223;50.862;4.360;2023-02-19T05:43:55;11.70;;;2.50;;
20124;SDS011;10223;50.862;4.360;2023-02-19T05:46:23;14.80;;;3.07;;
20124;SDS011;10223;50.862;4.360;2023-02-19T05:48:52;13.87;;;2.73;;
20124;SDS011;10223;50.862;4.360;2023-02-19T05:51:19;15.20;;;2.90;;
20124;SDS011;10223;50.862;4.360;2023-02-19T05:53:49;16.13;;;2.67;;
20124;SDS011;10223;50.862;4.360;2023-02-19T05:59:01;11.57;;;2.60;;
20124;SDS011;10223;50.862;4.360;2023-02-19T06:01:30;13.27;;;2.60;;
20124;SDS011;10223;50.862;4.360;2023-02-19T06:03:58;13.10;;;3.33;;
20124;SDS011;10223;50.862;4.360;2023-02-19T06:06:25;14.40;;;3.33;;
20124;SDS011;10223;50.862;4.360;2023-02-19T06:08:52;13.17;;;2.53;;
20124;SDS011;10223;50.862;4.360;2023-02-19T06:11:19;12.93;;;2.77;;
20124;SDS011;10223;50.862;4.360;2023-02-19T06:13:46;11.13;;;2.20;;
20124;SDS011;10223;50.862;4.360;2023-02-19T06:16:16;15.87;;;2.40;;
20124;SDS011;10223;50.862;4.360;2023-02-19T06:18:43;16.97;;;3.10;;
20124;SDS011;10223;50.862;4.360;2023-02-19T06:21:10;13.63;;;2.57;;
20124;SDS011;10223;50.862;4.360;2023-02-19T06:23:38;12.70;;;2.40;;
20124;SDS011;10223;50.862;4.360;2023-02-19T06:26:06;13.63;;;2.27;;
20124;SDS011;10223;50.862;4.360;2023-02-19T06:28:34;12.63;;;3.07;;
20124;SDS011;10223;50.862;4.360;2023-02-19T06:31:01;16.90;;;3.10;;
20124;SDS011;10223;50.862;4.360;2023-02-19T06:33:30;16.20;;;2.77;;
20124;SDS011;10223;50.862;4.360;2023-02-19T06:35:58;12.27;;;2.30;;
20124;SDS011;10223;50.862;4.360;2023-02-19T06:38:26;14.40;;;2.80;;
20124;SDS011;10223;50.862;4.360;2023-02-19T06:40:53;12.13;;;2.43;;
20124;SDS011;10223;50.862;4.360;2023-02-19T06:43:20;24.10;;;3.17;;
20124;SDS011;10223;50.862;4.360;2023-02-19T06:45:47;14.00;;;3.27;;
20124;SDS011;10223;50.862;4.360;2023-02-19T06:48:14;19.03;;;3.23;;
20124;SDS011;10223;50.862;4.360;2023-02-19T06:50:42;11.43;;;2.73;;
20124;SDS011;10223;50.862;4.360;2023-02-19T06:53:09;13.50;;;2.87;;
20124;SDS011;10223;50.862;4.360;2023-02-19T06:55:36;11.20;;;2.37;;
20124;SDS011;10223;50.862;4.360;2023-02-19T06:58:04;12.60;;;3.10;;
20124;SDS011;10223;50.862;4.360;2023-02-19T07:00:31;10.87;;;2.30;;
20124;SDS011;10223;50.862;4.360;2023-02-19T07:02:58;15.70;;;2.90;;
20124;SDS011;10223;50.862;4.360;2023-02-19T07:05:25;16.70;;;2.80;;
20124;SDS011;10223;50.862;4.360;2023-02-19T07:07:54;9.40;;;2.30;;
20124;SDS011;10223;50.862;4.360;2023-02-19T07:10:20;16.20;;;2.50;;
20124;SDS011;10223;50.862;4.360;2023-02-19T07:12:47;10.27;;;2.53;;
20124;SDS011;10223;50.862;4.360;2023-02-19T07:15:14;11.63;;;2.50;;
20124;SDS011;10223;50.862;4.360;2023-02-19T07:17:41;14.10;;;2.70;;
20124;SDS011;10223;50.862;4.360;2023-02-19T07:20:08;14.77;;;3.07;;
20124;SDS011;10223;50.862;4.360;2023-02-19T07:22:35;13.17;;;3.03;;
20124;SDS011;10223;50.862;4.360;2023-02-19T07:25:04;9.90;;;2.30;;
20124;SDS011;10223;50.862;4.360;2023-02-19T07:27:31;13.77;;;3.07;;
20124;SDS011;10223;50.862;4.360;2023-02-19T07:29:58;13.07;;;2.80;;
20124;SDS011;10223;50.862;4.360;2023-02-19T07:32:26;9.93;;;2.33;;
20124;SDS011;10223;50.862;4.360;2023-02-19T07:34:53;12.10;;;2.67;;
20124;SDS011;10223;50.862;4.360;2023-02-19T07:37:19;15.70;;;2.77;;
20124;SDS011;10223;50.862;4.360;2023-02-19T07:39:46;8.67;;;2.57;;
20124;SDS011;10223;50.862;4.360;2023-02-19T07:42:15;12.50;;;2.10;;
20124;SDS011;10223;50.862;4.360;2023-02-19T07:44:42;9.73;;;2.47;;
20124;SDS011;10223;50.862;4.360;2023-02-19T07:47:09;10.90;;;2.00;;
20124;SDS011;10223;50.862;4.360;2023-02-19T07:49:36;17.20;;;3.03;;
20124;SDS011;10223;50.862;4.360;2023-02-19T07:52:03;10.60;;;2.30;;
20124;SDS011;10223;50.862;4.360;2023-02-19T07:54:30;14.17;;;2.50;;
20124;SDS011;10223;50.862;4.360;2023-02-19T07:56:57;12.80;;;2.33;;
20124;SDS011;10223;50.862;4.360;2023-02-19T07:59:26;11.40;;;2.70;;
20124;SDS011;10223;50.862;4.360;2023-02-19T08:01:53;15.40;;;2.60;;
20124;SDS011;10223;50.862;4.360;2023-02-19T08:04:37;12.00;;;2.70;;
20124;SDS011;10223;50.862;4.360;2023-02-19T08:07:04;14.10;;;2.83;;
20124;SDS011;10223;50.862;4.360;2023-02-19T08:09:32;10.27;;;2.17;;
20124;SDS011;10223;50.862;4.360;2023-02-19T08:11:59;15.73;;;2.60;;
20124;SDS011;10223;50.862;4.360;2023-02-19T08:14:44;14.13;;;2.30;;
20124;SDS011;10223;50.862;4.360;2023-02-19T08:17:11;12.00;;;2.30;;
20124;SDS011;10223;50.862;4.360;2023-02-19T08:19:38;12.23;;;2.33;;
20124;SDS011;10223;50.862;4.360;2023-02-19T08:22:05;14.67;;;2.87;;
20124;SDS011;10223;50.862;4.360;2023-02-19T08:24:32;11.03;;;2.40;;
20124;SDS011;10223;50.862;4.360;2023-02-19T08:27:05;12.27;;;2.93;;
20124;SDS011;10223;50.862;4.360;2023-02-19T08:29:32;10.13;;;2.13;;
20124;SDS011;10223;50.862;4.360;2023-02-19T08:32:01;10.20;;;2.67;;
20124;SDS011;10223;50.862;4.360;2023-02-19T08:34:28;12.30;;;2.23;;
20124;SDS011;10223;50.862;4.360;2023-02-19T08:36:54;12.13;;;2.37;;
20124;SDS011;10223;50.862;4.360;2023-02-19T08:39:21;11.80;;;2.40;;
20124;SDS011;10223;50.862;4.360;2023-02-19T08:41:48;8.83;;;2.40;;
20124;SDS011;10223;50.862;4.360;2023-02-19T08:44:15;13.73;;;2.30;;
20124;SDS011;10223;50.862;4.360;2023-02-19T08:46:42;7.93;;;1.90;;
20124;SDS011;10223;50.862;4.360;2023-02-19T08:49:10;6.53;;;2.10;;
20124;SDS011;10223;50.862;4.360;2023-02-19T08:51:37;10.80;;;2.37;;
20124;SDS011;10223;50.862;4.360;2023-02-19T08:54:04;11.30;;;2.30;;
20124;SDS011;10223;50.862;4.360;2023-02-19T08:56:31;13.53;;;2.50;;
20124;SDS011;10223;50.862;4.360;2023-02-19T08:58:58;8.37;;;2.13;;
20124;SDS011;10223;50.862;4.360;2023-02-19T09:01:25;8.33;;;2.20;;
20124;SDS011;10223;50.862;4.360;2023-02-19T09:03:52;15.53;;;3.10;;
20124;SDS011;10223;50.862;4.360;2023-02-19T09:06:20;8.43;;;2.33;;
20124;SDS011;10223;50.862;4.360;2023-02-19T09:08:47;17.20;;;2.73;;
20124;SDS011;10223;50.862;4.360;2023-02-19T09:11:14;12.60;;;2.47;;
20124;SDS011;10223;50.862;4.360;2023-02-19T09:13:41;13.10;;;2.47;;
20124;SDS011;10223;50.862;4.360;2023-02-19T09:16:09;9.67;;;2.50;;
20124;SDS011;10223;50.862;4.360;2023-02-19T09:18:36;14.23;;;4.07;;
20124;SDS011;10223;50.862;4.360;2023-02-19T09:21:04;10.20;;;2.30;;
20124;SDS011;10223;50.862;4.360;2023-02-19T09:23:33;9.97;;;2.70;;
20124;SDS011;10223;50.862;4.360;2023-02-19T09:26:01;15.73;;;2.50;;
20124;SDS011;10223;50.862;4.360;2023-02-19T09:28:31;12.80;;;2.70;;
20124;SDS011;10223;50.862;4.360;2023-02-19T09:31:01;14.10;;;3.23;;
20124;SDS011;10223;50.862;4.360;2023-02-19T09:33:30;10.43;;;2.87;;
20124;SDS011;10223;50.862;4.360;2023-02-19T09:35:57;15.33;;;3.37;;
20124;SDS011;10223;50.862;4.360;2023-02-19T09:38:24;13.77;;;2.23;;
20124;SDS011;10223;50.862;4.360;2023-02-19T09:40:52;12.93;;;2.77;;
20124;SDS011;10223;50.862;4.360;2023-02-19T09:43:20;10.13;;;2.37;;
20124;SDS011;10223;50.862;4.360;2023-02-19T09:45:57;13.30;;;2.93;;
20124;SDS011;10223;50.862;4.360;2023-02-19T09:48:28;13.53;;;3.20;;
20124;SDS011;10223;50.862;4.360;2023-02-19T09:50:56;11.77;;;2.70;;
20124;SDS011;10223;50.862;4.360;2023-02-19T09:53:26;14.03;;;2.43;;
20124;SDS011;10223;50.862;4.360;2023-02-19T09:56:05;9.43;;;2.73;;
20124;SDS011;10223;50.862;4.360;2023-02-19T09:58:33;13.77;;;2.90;;
20124;SDS011;10223;50.862;4.360;2023-02-19T10:01:05;8.33;;;2.17;;
20124;SDS011;10223;50.862;4.360;2023-02-19T10:03:37;12.50;;;2.80;;
20124;SDS011;10223;50.862;4.360;2023-02-19T10:06:10;11.27;;;2.30;;
20124;SDS011;10223;50.862;4.360;2023-02-19T10:08:43;13.20;;;2.87;;
20124;SDS011;10223;50.862;4.360;2023-02-19T10:11:13;12.07;;;2.50;;
20124;SDS011;10223;50.862;4.360;2023-02-19T10:13:42;12.97;;;2.90;;
20124;SDS011;10223;50.862;4.360;2023-02-19T10:16:13;10.40;;;3.00;;
20124;SDS011;10223;50.862;4.360;2023-02-19T10:18:44;14.90;;;3.70;;
20124;SDS011;10223;50.862;4.360;2023-02-19T10:21:15;9.23;;;3.43;;
20124;SDS011;10223;50.862;4.360;2023-02-19T10:23:44;14.30;;;3.33;;
20124;SDS011;10223;50.862;4.360;2023-02-19T10:26:15;8.40;;;2.57;;
20124;SDS011;10223;50.862;4.360;2023-02-19T10:28:42;14.17;;;3.23;;
20124;SDS011;10223;50.862;4.360;2023-02-19T10:31:18;14.00;;;2.97;;
20124;SDS011;10223;50.862;4.360;2023-02-19T10:33:50;10.07;;;3.03;;
20124;SDS011;10223;50.862;4.360;2023-02-19T10:36:23;6.67;;;2.30;;
20124;SDS011;10223;50.862;4.360;2023-02-19T10:38:53;7.33;;;2.70;;
20124;SDS011;10223;50.862;4.360;2023-02-19T10:41:22;10.63;;;2.73;;
20124;SDS011;10223;50.862;4.360;2023-02-19T10:43:51;10.30;;;3.07;;
20124;SDS011;10223;50.862;4.360;2023-02-19T10:46:22;12.20;;;3.30;;
20124;SDS011;10223;50.862;4.360;2023-02-19T10:48:51;16.00;;;2.90;;
20124;SDS011;10223;50.862;4.360;2023-02-19T10:51:20;7.97;;;2.77;;
20124;SDS011;10223;50.862;4.360;2023-02-19T10:54:01;13.97;;;3.93;;
20124;SDS011;10223;50.862;4.360;2023-02-19T10:56:32;15.20;;;3.30;;
20124;SDS011;10223;50.862;4.360;2023-02-19T10:59:13;10.00;;;3.07;;
20124;SDS011;10223;50.862;4.360;2023-02-19T11:01:52;12.60;;;3.40;;
20124;SDS011;10223;50.862;4.360;2023-02-19T11:04:20;8.73;;;3.10;;
20124;SDS011;10223;50.862;4.360;2023-02-19T11:06:47;14.90;;;3.30;;
20124;SDS011;10223;50.862;4.360;2023-02-19T11:09:21;10.27;;;3.07;;
20124;SDS011;10223;50.862;4.360;2023-02-19T11:11:53;8.90;;;2.90;;
20124;SDS011;10223;50.862;4.360;2023-02-19T11:14:22;10.00;;;2.97;;
20124;SDS011;10223;50.862;4.360;2023-02-19T11:16:50;12.43;;;2.97;;
20124;SDS011;10223;50.862;4.360;2023-02-19T11:19:27;11.67;;;2.80;;
20124;SDS011;10223;50.862;4.360;2023-02-19T11:21:58;14.53;;;4.17;;
20124;SDS011;10223;50.862;4.360;2023-02-19T11:24:31;16.63;;;3.60;;
20124;SDS011;10223;50.862;4.360;2023-02-19T11:27:03;11.83;;;3.67;;
20124;SDS011;10223;50.862;4.360;2023-02-19T11:29:32;10.53;;;3.50;;
20124;SDS011;10223;50.862;4.360;2023-02-19T11:32:15;13.10;;;3.20;;
20124;SDS011;10223;50.862;4.360;2023-02-19T11:34:50;9.57;;;2.87;;
20124;SDS011;10223;50.862;4.360;2023-02-19T11:37:18;15.93;;;4.10;;
20124;SDS011;10223;50.862;4.360;2023-02-19T11:39:46;9.87;;;3.40;;
20124;SDS011;10223;50.862;4.360;2023-02-19T11:42:25;9.03;;;3.07;;
20124;SDS011;10223;50.862;4.360;2023-02-19T11:45:13;10.93;;;2.90;;
20124;SDS011;10223;50.862;4.360;2023-02-19T11:48:05;11.70;;;3.83;;
20124;SDS011;10223;50.862;4.360;2023-02-19T11:50:56;8.73;;;2.83;;
20124;SDS011;10223;50.862;4.360;2023-02-19T11:53:32;10.90;;;3.30;;
20124;SDS011;10223;50.862;4.360;2023-02-19T11:56:06;10.50;;;3.90;;
20124;SDS011;10223;50.862;4.360;2023-02-19T12:07:50;7.87;;;3.20;;
20124;SDS011;10223;50.862;4.360;2023-02-19T12:10:49;8.03;;;2.90;;
20124;SDS011;10223;50.862;4.360;2023-02-19T12:13:46;6.00;;;2.70;;
20124;SDS011;10223;50.862;4.360;2023-02-19T12:16:29;9.97;;;2.87;;
20124;SDS011;10223;50.862;4.360;2023-02-19T12:19:02;6.80;;;2.90;;
20124;SDS011;10223;50.862;4.360;2023-02-19T12:21:54;10.23;;;3.03;;
20124;SDS011;10223;50.862;4.360;2023-02-19T12:27:38;7.03;;;3.00;;
20124;SDS011;10223;50.862;4.360;2023-02-19T12:30:24;7.90;;;2.60;;
20124;SDS011;10223;50.862;4.360;2023-02-19T12:33:07;6.30;;;2.33;;
20124;SDS011;10223;50.862;4.360;2023-02-19T12:35:54;7.57;;;3.03;;
20124;SDS011;10223;50.862;4.360;2023-02-19T12:38:29;9.53;;;3.83;;
20124;SDS011;10223;50.862;4.360;2023-02-19T12:41:09;12.73;;;3.10;;
20124;SDS011;10223;50.862;4.360;2023-02-19T12:43:44;8.77;;;3.03;;
20124;SDS011;10223;50.862;4.360;2023-02-19T12:46:19;8.77;;;2.80;;
20124;SDS011;10223;50.862;4.360;2023-02-19T12:48:52;10.40;;;3.37;;
20124;SDS011;10223;50.862;4.360;2023-02-19T12:51:25;9.10;;;2.90;;
20124;SDS011;10223;50.862;4.360;2023-02-19T12:53:57;8.83;;;2.70;;
20124;SDS011;10223;50.862;4.360;2023-02-19T12:56:28;8.60;;;2.97;;
20124;SDS011;10223;50.862;4.360;2023-02-19T12:58:59;8.40;;;2.93;;
20124;SDS011;10223;50.862;4.360;2023-02-19T13:01:30;5.53;;;2.50;;
20124;SDS011;10223;50.862;4.360;2023-02-19T13:04:13;7.37;;;2.47;;
20124;SDS011;10223;50.862;4.360;2023-02-19T13:06:47;3.77;;;2.07;;
20124;SDS011;10223;50.862;4.360;2023-02-19T13:09:19;9.03;;;2.93;;
20124;SDS011;10223;50.862;4.360;2023-02-19T13:11:55;10.13;;;2.77;;
20124;SDS011;10223;50.862;4.360;2023-02-19T13:14:27;6.70;;;2.60;;
20124;SDS011;10223;50.862;4.360;2023-02-19T13:16:59;5.63;;;2.70;;
20124;SDS011;10223;50.862;4.360;2023-02-19T13:19:31;6.03;;;2.43;;
20124;SDS011;10223;50.862;4.360;2023-02-19T13:22:02;7.17;;;2.57;;
20124;SDS011;10223;50.862;4.360;2023-02-19T13:24:49;8.03;;;2.43;;
20124;SDS011;10223;50.862;4.360;2023-02-19T13:30:10;6.07;;;2.53;;
20124;SDS011;10223;50.862;4.360;2023-02-19T13:32:52;8.93;;;2.40;;
20124;SDS011;10223;50.862;4.360;2023-02-19T13:35:30;7.83;;;2.47;;
20124;SDS011;10223;50.862;4.360;2023-02-19T13:38:21;6.70;;;3.10;;
20124;SDS011;10223;50.862;4.360;2023-02-19T13:40:52;7.40;;;2.90;;
20124;SDS011;10223;50.862;4.360;2023-02-19T13:43:24;7.03;;;2.77;;
20124;SDS011;10223;50.862;4.360;2023-02-19T13:45:54;5.13;;;2.63;;
20124;SDS011;10223;50.862;4.360;2023-02-19T13:48:24;8.73;;;3.37;;
20124;SDS011;10223;50.862;4.360;2023-02-19T13:54:00;11.73;;;3.27;;
20124;SDS011;10223;50.862;4.360;2023-02-19T13:56:39;8.37;;;3.03;;
20124;SDS011;10223;50.862;4.360;2023-02-19T13:59:23;7.77;;;3.13;;
20124;SDS011;10223;50.862;4.360;2023-02-19T14:02:09;8.30;;;3.20;;
20124;SDS011;10223;50.862;4.360;2023-02-19T14:04:59;10.70;;;2.60;;
20124;SDS011;10223;50.862;4.360;2023-02-19T14:07:33;6.63;;;2.80;;
20124;SDS011;10223;50.862;4.360;2023-02-19T14:16:50;5.97;;;3.10;;
20124;SDS011;10223;50.862;4.360;2023-02-19T14:28:28;10.43;;;3.47;;
20124;SDS011;10223;50.862;4.360;2023-02-19T14:31:15;17.97;;;7.10;;
20124;SDS011;10223;50.862;4.360;2023-02-19T14:33:50;3.23;;;2.17;;
20124;SDS011;10223;50.862;4.360;2023-02-19T14:36:22;6.63;;;3.10;;
20124;SDS011;10223;50.862;4.360;2023-02-19T14:38:56;5.77;;;2.67;;
20124;SDS011;10223;50.862;4.360;2023-02-19T14:41:26;7.07;;;2.60;;
20124;SDS011;10223;50.862;4.360;2023-02-19T14:43:55;7.23;;;2.37;;
20124;SDS011;10223;50.862;4.360;2023-02-19T14:46:28;7.23;;;2.97;;
20124;SDS011;10223;50.862;4.360;2023-02-19T14:48:59;9.13;;;3.33;;
20124;SDS011;10223;50.862;4.360;2023-02-19T14:51:31;6.83;;;2.90;;
20124;SDS011;10223;50.862;4.360;2023-02-19T14:54:03;7.00;;;2.67;;
20124;SDS011;10223;50.862;4.360;2023-02-19T14:56:38;5.50;;;2.63;;
20124;SDS011;10223;50.862;4.360;2023-02-19T14:59:07;7.23;;;2.40;;
20124;SDS011;10223;50.862;4.360;2023-02-19T15:01:53;8.30;;;2.50;;
20124;SDS011;10223;50.862;4.360;2023-02-19T15:04:25;19.00;;;7.70;;
20124;SDS011;10223;50.862;4.360;2023-02-19T15:06:55;11.90;;;3.70;;
20124;SDS011;10223;50.862;4.360;2023-02-19T15:09:28;6.13;;;2.87;;
20124;SDS011;10223;50.862;4.360;2023-02-19T15:11:58;6.83;;;3.40;;
20124;SDS011;10223;50.862;4.360;2023-02-19T15:14:29;5.53;;;2.97;;
20124;SDS011;10223;50.862;4.360;2023-02-19T15:16:59;5.37;;;2.90;;
20124;SDS011;10223;50.862;4.360;2023-02-19T15:19:28;6.50;;;3.13;;
20124;SDS011;10223;50.862;4.360;2023-02-19T15:21:59;5.80;;;2.73;;
20124;SDS011;10223;50.862;4.360;2023-02-19T15:24:26;4.77;;;2.30;;
20124;SDS011;10223;50.862;4.360;2023-02-19T15:26:53;5.07;;;2.50;;
20124;SDS011;10223;50.862;4.360;2023-02-19T15:29:21;8.10;;;2.73;;
20124;SDS011;10223;50.862;4.360;2023-02-19T15:31:50;7.53;;;2.87;;
20124;SDS011;10223;50.862;4.360;2023-02-19T15:34:23;6.13;;;2.87;;
20124;SDS011;10223;50.862;4.360;2023-02-19T15:36:54;8.97;;;2.73;;
20124;SDS011;10223;50.862;4.360;2023-02-19T15:39:23;4.73;;;2.40;;
20124;SDS011;10223;50.862;4.360;2023-02-19T15:41:55;6.07;;;3.33;;